Time;durP1;ratioP1;P1;durP2;ratioP2;P2;SDS_P1;SDS_P2;PMS_P1;PMS_P2;Temp;Humidity;BMP_temperature;BMP_pressure;BME280_temperature;BME280_humidity;BME280_pressure;Samples;Min_cycle;Max_cycle;Signal;HPM_P1;HPM_P2
2020/12/25 00:00:24;;;;;;;1999.90;999.90;;;4.70;99.90;;;;;;5095954;28;20052;-87
2020/12/25 00:02:51;;;;;;;1999.90;999.90;;;4.70;99.90;;;;;;5094750;28;20048;-88
2020/12/25 00:05:19;;;;;;;1999.90;999.90;;;4.70;99.90;;;;;;5095960;28;20139;-88
2020/12/25 00:07:46;;;;;;;1999.90;999.90;;;4.70;99.90;;;;;;5095032;28;20052;-88
2020/12/25 00:10:12;;;;;;;1999.90;999.90;;;4.70;99.90;;;;;;5100437;28;20039;-88
2020/12/25 00:12:43;;;;;;;1999.90;999.90;;;4.70;99.90;;;;;;5101601;28;20438;-88
2020/12/25 00:15:15;;;;;;;1999.90;999.90;;;4.80;99.90;;;;;;5097121;28;20217;-88
2020/12/25 00:17:42;;;;;;;1999.90;999.90;;;4.70;99.90;;;;;;5095888;28;20044;-88
2020/12/25 00:20:10;;;;;;;1999.90;999.90;;;4.80;99.90;;;;;;5101449;28;20039;-88
2020/12/25 00:22:37;;;;;;;1999.90;999.90;;;4.80;99.90;;;;;;5095246;28;20134;-88
2020/12/25 00:25:04;;;;;;;1999.90;999.90;;;4.80;99.90;;;;;;5094338;28;20130;-87
2020/12/25 00:27:31;;;;;;;1999.90;999.90;;;4.80;99.90;;;;;;5096169;28;20519;-88
2020/12/25 00:29:58;;;;;;;1999.90;999.90;;;4.80;99.90;;;;;;5095546;28;20052;-88
2020/12/25 00:32:27;;;;;;;1999.90;999.90;;;4.90;99.90;;;;;;5095399;28;20098;-88
2020/12/25 00:34:54;;;;;;;1999.90;999.90;;;4.80;99.90;;;;;;5103389;28;20076;-88
2020/12/25 00:37:23;;;;;;;1999.90;999.90;;;4.80;99.90;;;;;;5097232;28;20048;-88
2020/12/25 00:39:50;;;;;;;1999.90;999.90;;;4.80;99.90;;;;;;5095748;28;20048;-88
2020/12/25 00:42:17;;;;;;;1999.90;999.90;;;4.80;99.90;;;;;;5095089;28;20051;-88
2020/12/25 00:44:44;;;;;;;1999.90;999.90;;;4.70;99.90;;;;;;5095723;28;20109;-88
2020/12/25 00:47:11;;;;;;;1999.90;999.90;;;4.80;99.90;;;;;;5095050;28;20047;-88
2020/12/25 00:49:39;;;;;;;1999.90;999.90;;;4.80;99.90;;;;;;5095451;28;20510;-88
2020/12/25 00:52:06;;;;;;;1999.90;999.90;;;4.80;99.90;;;;;;5094452;28;20491;-88
2020/12/25 00:54:33;;;;;;;1999.90;999.90;;;4.80;99.90;;;;;;5094919;28;20135;-87
2020/12/25 00:57:01;;;;;;;1999.90;999.90;;;4.80;99.90;;;;;;5094853;28;20541;-88
2020/12/25 00:59:28;;;;;;;1999.90;999.90;;;4.80;99.90;;;;;;5093988;28;20138;-88
2020/12/25 01:01:55;;;;;;;1999.90;999.90;;;4.90;99.90;;;;;;5093765;28;20467;-88
2020/12/25 01:04:22;;;;;;;1999.90;999.90;;;4.90;99.90;;;;;;5096618;28;20075;-88
2020/12/25 01:06:49;;;;;;;1999.90;999.90;;;4.80;99.90;;;;;;5102266;28;20070;-88
2020/12/25 01:09:16;;;;;;;1999.90;999.90;;;4.80;99.90;;;;;;5095030;28;20052;-88
2020/12/25 01:11:43;;;;;;;1999.90;999.90;;;4.80;99.90;;;;;;5095198;28;20075;-87
2020/12/25 01:14:13;;;;;;;1999.90;999.90;;;4.90;99.90;;;;;;5094031;28;20052;-88
2020/12/25 01:16:40;;;;;;;1999.90;999.90;;;4.90;99.90;;;;;;5095057;28;20052;-88
2020/12/25 01:19:07;;;;;;;1999.90;999.90;;;4.90;99.90;;;;;;5094735;28;20418;-88
2020/12/25 01:21:34;;;;;;;1999.90;999.90;;;4.90;99.90;;;;;;5094849;28;20048;-88
2020/12/25 01:24:03;;;;;;;1999.90;999.90;;;4.90;99.90;;;;;;5093851;28;20056;-88
2020/12/25 01:26:30;;;;;;;1999.90;999.90;;;4.90;99.90;;;;;;5095210;28;20106;-88
2020/12/25 01:29:02;;;;;;;1999.90;999.90;;;4.90;99.90;;;;;;5094160;28;20054;-87
2020/12/25 01:31:30;;;;;;;1999.90;999.90;;;5.00;99.90;;;;;;5096331;28;20059;-88
2020/12/25 01:33:57;;;;;;;1999.90;999.90;;;4.90;99.90;;;;;;5095813;28;20058;-87
2020/12/25 01:36:24;;;;;;;1999.90;999.90;;;5.00;99.90;;;;;;5094021;28;20068;-88
2020/12/25 01:38:51;;;;;;;1999.90;999.90;;;5.00;99.90;;;;;;5080811;28;20130;-88
2020/12/25 01:41:19;;;;;;;1999.90;999.90;;;5.00;99.90;;;;;;5092726;28;20048;-88
2020/12/25 01:43:46;;;;;;;1999.90;999.90;;;5.00;99.90;;;;;;5093418;28;20188;-88
2020/12/25 01:46:14;;;;;;;1999.90;999.90;;;5.00;99.90;;;;;;5100685;28;20043;-88
2020/12/25 01:48:42;;;;;;;1999.90;999.90;;;5.00;99.90;;;;;;5092139;28;20128;-88
2020/12/25 01:51:14;;;;;;;1999.90;999.90;;;5.00;99.90;;;;;;5093333;28;20443;-88
2020/12/25 01:53:42;;;;;;;1999.90;999.90;;;5.00;99.90;;;;;;5090858;28;20052;-88
2020/12/25 01:56:11;;;;;;;1999.90;999.90;;;5.00;99.90;;;;;;5096452;28;20054;-88
2020/12/25 01:58:42;;;;;;;1999.90;999.90;;;5.00;99.90;;;;;;5094347;28;20083;-88
2020/12/25 02:01:12;;;;;;;1999.90;999.90;;;5.00;99.90;;;;;;5093132;28;20040;-88
2020/12/25 02:03:39;;;;;;;1999.90;999.90;;;5.00;99.90;;;;;;5093913;28;20137;-89
2020/12/25 02:06:12;;;;;;;1999.90;999.90;;;5.00;99.90;;;;;;5094467;28;20121;-88
2020/12/25 02:08:39;;;;;;;1999.90;999.90;;;4.90;99.90;;;;;;5093460;28;20047;-88
2020/12/25 02:11:07;;;;;;;1999.90;999.90;;;4.90;99.90;;;;;;5090171;28;20127;-89
2020/12/25 02:13:36;;;;;;;1999.90;999.90;;;4.90;99.90;;;;;;5094262;28;20135;-88
2020/12/25 02:16:05;;;;;;;1999.90;999.90;;;4.90;99.90;;;;;;5088012;28;20167;-88
2020/12/25 02:18:33;;;;;;;1999.90;999.90;;;4.90;99.90;;;;;;5085935;28;20105;-88
2020/12/25 02:21:03;;;;;;;1999.90;999.90;;;4.90;99.90;;;;;;5101799;28;20075;-88
2020/12/25 02:23:30;;;;;;;1999.90;999.90;;;4.90;99.90;;;;;;5093302;28;20127;-88
2020/12/25 02:25:57;;;;;;;1999.90;999.90;;;4.90;99.90;;;;;;5099724;28;20212;-88
2020/12/25 02:28:24;;;;;;;1999.90;999.90;;;4.90;99.90;;;;;;5093713;28;20098;-88
2020/12/25 02:30:51;;;;;;;1999.90;999.90;;;4.90;99.90;;;;;;5094052;28;20136;-88
2020/12/25 02:33:18;;;;;;;1999.90;999.90;;;4.80;99.90;;;;;;5093732;28;20083;-88
2020/12/25 02:35:45;;;;;;;1999.90;999.90;;;4.90;99.90;;;;;;5093762;28;20482;-88
2020/12/25 02:38:14;;;;;;;1999.90;999.90;;;4.80;99.90;;;;;;5086445;28;20131;-88
2020/12/25 02:40:41;;;;;;;1999.90;999.90;;;4.80;99.90;;;;;;5093598;28;20100;-88
2020/12/25 02:43:08;;;;;;;1999.90;999.90;;;4.80;99.90;;;;;;5085047;28;20075;-88
2020/12/25 02:45:36;;;;;;;1999.90;999.90;;;4.80;99.90;;;;;;5093995;28;20082;-88
2020/12/25 02:48:03;;;;;;;1999.90;999.90;;;4.80;99.90;;;;;;5093324;28;20109;-88
2020/12/25 02:50:30;;;;;;;1999.90;999.90;;;4.70;99.90;;;;;;5093290;28;20093;-88
2020/12/25 02:52:57;;;;;;;1999.90;999.90;;;4.80;99.90;;;;;;5087281;28;20135;-88
2020/12/25 02:55:25;;;;;;;1999.90;999.90;;;4.70;99.90;;;;;;5093022;28;20479;-88
2020/12/25 02:57:52;;;;;;;1999.90;999.90;;;4.70;99.90;;;;;;5093738;28;20047;-87
2020/12/25 03:00:19;;;;;;;1999.90;999.90;;;4.70;99.90;;;;;;5107937;28;20075;-87
2020/12/25 03:02:46;;;;;;;1999.90;999.90;;;4.60;99.90;;;;;;5097461;28;20151;-87
2020/12/25 03:05:31;;;;;;;1999.90;999.90;;;4.50;99.90;;;;;;5097579;28;20044;-87
2020/12/25 03:07:58;;;;;;;1999.90;999.90;;;4.60;99.90;;;;;;5096956;28;20056;-87
2020/12/25 03:10:26;;;;;;;1999.90;999.90;;;4.60;99.90;;;;;;5093471;28;20390;-87
2020/12/25 03:12:53;;;;;;;1999.90;999.90;;;4.50;99.90;;;;;;5096868;28;20044;-87
2020/12/25 03:15:21;;;;;;;1999.90;999.90;;;4.40;99.90;;;;;;5097292;28;20052;-87
2020/12/25 03:17:48;;;;;;;1999.90;999.90;;;4.40;99.90;;;;;;5104171;28;20055;-87
2020/12/25 03:20:15;;;;;;;1999.90;999.90;;;4.40;99.90;;;;;;5096379;28;20058;-86
2020/12/25 03:22:42;;;;;;;1999.90;999.90;;;4.30;99.90;;;;;;5096627;28;20448;-87
2020/12/25 03:25:09;;;;;;;1999.90;999.90;;;4.30;99.90;;;;;;5096411;28;20394;-87
2020/12/25 03:27:37;;;;;;;1999.90;999.90;;;4.20;99.90;;;;;;5096435;28;20072;-87
2020/12/25 03:30:04;;;;;;;1999.90;999.90;;;4.20;99.90;;;;;;5096144;28;20083;-87
2020/12/25 03:32:31;;;;;;;1999.90;999.90;;;4.20;99.90;;;;;;5096468;28;20095;-87
2020/12/25 03:34:58;;;;;;;1999.90;999.90;;;4.10;99.90;;;;;;5099024;28;20086;-86
2020/12/25 03:37:25;;;;;;;1999.90;999.90;;;4.10;99.90;;;;;;5100838;28;20048;-87
2020/12/25 03:39:52;;;;;;;1999.90;999.90;;;4.10;99.90;;;;;;5096059;28;20486;-87
2020/12/25 03:42:19;;;;;;;1999.90;999.90;;;4.10;99.90;;;;;;5097004;28;20147;-87
2020/12/25 03:44:54;;;;;;;1999.90;999.90;;;4.10;99.90;;;;;;5096158;28;20142;-86
2020/12/25 03:47:23;;;;;;;1999.90;999.90;;;4.10;99.90;;;;;;5094776;28;20105;-87
2020/12/25 03:49:50;;;;;;;1999.90;999.90;;;4.10;99.90;;;;;;5096468;28;20052;-85
2020/12/25 03:52:17;;;;;;;1999.90;999.90;;;4.00;99.90;;;;;;5082950;28;20072;-86
2020/12/25 03:54:45;;;;;;;1999.90;999.90;;;4.00;99.90;;;;;;5075637;28;20052;-86
2020/12/25 03:57:13;;;;;;;1999.90;999.90;;;4.00;99.90;;;;;;5075759;28;20049;-85
2020/12/25 03:59:40;;;;;;;1999.90;999.90;;;4.00;99.90;;;;;;5075786;28;20086;-86
2020/12/25 04:02:08;;;;;;;1999.90;999.90;;;4.00;99.90;;;;;;5085084;28;20045;-86
2020/12/25 04:04:35;;;;;;;1999.90;999.90;;;4.00;99.90;;;;;;5080992;28;20149;-86
2020/12/25 04:07:02;;;;;;;1999.90;999.90;;;4.00;99.90;;;;;;5075357;28;20140;-86
2020/12/25 04:09:29;;;;;;;1999.90;999.90;;;4.00;99.90;;;;;;5073519;28;20072;-86
2020/12/25 04:11:56;;;;;;;1999.90;999.90;;;4.00;99.90;;;;;;5075773;28;20513;-87
2020/12/25 04:14:23;;;;;;;1999.90;999.90;;;4.00;99.90;;;;;;5075485;28;20139;-86
2020/12/25 04:16:52;;;;;;;1999.90;999.90;;;4.00;99.90;;;;;;5075704;28;20147;-86
2020/12/25 04:19:20;;;;;;;1999.90;999.90;;;4.00;99.90;;;;;;5075423;28;20048;-86
2020/12/25 04:21:48;;;;;;;1999.90;999.90;;;3.90;99.90;;;;;;5073777;28;20045;-86
2020/12/25 04:24:15;;;;;;;1999.90;999.90;;;4.00;99.90;;;;;;5075115;28;20045;-86
2020/12/25 04:26:45;;;;;;;1999.90;999.90;;;4.00;99.90;;;;;;5074693;28;20052;-86
2020/12/25 04:29:13;;;;;;;1999.90;999.90;;;4.00;99.90;;;;;;5073728;28;20045;-86
2020/12/25 04:31:40;;;;;;;1999.90;999.90;;;3.90;99.90;;;;;;5088908;28;20067;-85
2020/12/25 04:34:08;;;;;;;1999.90;999.90;;;4.00;99.90;;;;;;5074718;28;20111;-86
2020/12/25 04:36:36;;;;;;;1999.90;999.90;;;4.00;99.90;;;;;;5074645;28;20064;-86
2020/12/25 04:39:05;;;;;;;1999.90;999.90;;;4.10;99.90;;;;;;5071235;28;20136;-86
2020/12/25 04:41:32;;;;;;;1999.90;999.90;;;4.10;99.90;;;;;;5063218;28;20049;-87
2020/12/25 04:44:01;;;;;;;1999.90;999.90;;;4.10;99.90;;;;;;5077464;28;20044;-86
2020/12/25 04:46:28;;;;;;;1999.90;999.90;;;4.10;99.90;;;;;;5074859;28;20052;-86
2020/12/25 04:48:56;;;;;;;1999.90;999.90;;;4.10;99.90;;;;;;5089332;28;20044;-87
2020/12/25 04:51:23;;;;;;;1999.90;999.90;;;4.20;99.90;;;;;;5083080;28;20467;-87
2020/12/25 04:53:53;;;;;;;1999.90;999.90;;;4.20;99.90;;;;;;5094659;28;20521;-87
2020/12/25 04:56:21;;;;;;;1999.90;999.90;;;4.20;99.90;;;;;;5095196;28;20108;-87
2020/12/25 04:58:49;;;;;;;1999.90;999.90;;;4.20;99.90;;;;;;5092293;28;20071;-86
2020/12/25 05:01:16;;;;;;;1999.90;999.90;;;4.20;99.90;;;;;;5094440;28;20044;-87
2020/12/25 05:03:44;;;;;;;1999.90;999.90;;;4.20;99.90;;;;;;5095229;28;20130;-87
2020/12/25 05:06:13;;;;;;;1999.90;999.90;;;4.20;99.90;;;;;;5092769;28;20044;-87
2020/12/25 05:08:41;;;;;;;1999.90;999.90;;;4.20;99.90;;;;;;5105028;28;20097;-87
2020/12/25 05:11:12;;;;;;;1999.90;999.90;;;4.20;99.90;;;;;;5092234;28;20505;-87
2020/12/25 05:13:44;;;;;;;1999.90;999.90;;;4.20;99.90;;;;;;5096169;28;20144;-87
2020/12/25 05:16:12;;;;;;;1999.90;999.90;;;4.20;99.90;;;;;;5094369;28;20055;-87
2020/12/25 05:18:42;;;;;;;1999.90;999.90;;;4.20;99.90;;;;;;5096515;28;20452;-87
2020/12/25 05:21:12;;;;;;;1999.90;999.90;;;4.20;99.90;;;;;;5094269;28;20502;-87
2020/12/25 05:23:40;;;;;;;1999.90;999.90;;;4.20;99.90;;;;;;5092968;28;20093;-87
2020/12/25 05:26:09;;;;;;;1999.90;999.90;;;4.20;99.90;;;;;;5094828;28;20051;-87
2020/12/25 05:28:39;;;;;;;1999.90;999.90;;;4.20;99.90;;;;;;5093013;28;20079;-87
2020/12/25 05:31:08;;;;;;;1999.90;999.90;;;4.20;99.90;;;;;;5094082;28;20521;-85
2020/12/25 05:33:36;;;;;;;1999.90;999.90;;;4.20;99.90;;;;;;5092901;28;20092;-86
2020/12/25 05:36:06;;;;;;;1999.90;999.90;;;4.20;99.90;;;;;;5083631;28;20040;-87
2020/12/25 05:38:34;;;;;;;1999.90;999.90;;;4.20;99.90;;;;;;5095622;28;20051;-87
2020/12/25 05:41:02;;;;;;;1999.90;999.90;;;4.20;99.90;;;;;;5094293;28;20406;-90
2020/12/25 05:43:29;;;;;;;1999.90;999.90;;;4.20;99.90;;;;;;5096217;28;20071;-89
2020/12/25 05:45:57;;;;;;;1999.90;999.90;;;4.20;99.90;;;;;;5094640;28;20052;-90
2020/12/25 05:48:24;;;;;;;1999.90;999.90;;;4.20;99.90;;;;;;5094966;28;20090;-90
2020/12/25 05:50:53;;;;;;;1999.90;999.90;;;4.20;99.90;;;;;;5092363;28;20177;-90
2020/12/25 05:53:20;;;;;;;1999.90;999.90;;;4.30;99.90;;;;;;5089326;28;20143;-90
2020/12/25 05:55:47;;;;;;;1999.90;999.90;;;4.30;99.90;;;;;;5092890;28;20139;-90
2020/12/25 05:58:16;;;;;;;1999.90;999.90;;;4.30;99.90;;;;;;5094023;28;20083;-90
2020/12/25 06:00:44;;;;;;;1999.90;999.90;;;4.30;99.90;;;;;;5094279;28;20055;-90
2020/12/25 06:03:13;;;;;;;1999.90;999.90;;;4.40;99.90;;;;;;5094119;28;20052;-90
2020/12/25 06:05:41;;;;;;;1999.90;999.90;;;4.40;99.90;;;;;;5080203;28;20447;-90
2020/12/25 06:08:17;;;;;;;1999.90;999.90;;;4.40;99.90;;;;;;5094199;28;20475;-90
2020/12/25 06:10:46;;;;;;;1999.90;999.90;;;4.40;99.90;;;;;;5080194;28;20051;-90
2020/12/25 06:13:15;;;;;;;1999.90;999.90;;;4.40;99.90;;;;;;5086862;28;20044;-91
2020/12/25 06:15:49;;;;;;;1999.90;999.90;;;4.40;99.90;;;;;;5107683;28;20452;-91
2020/12/25 06:18:33;;;;;;;1999.90;999.90;;;4.40;99.90;;;;;;5093971;28;20064;-91
2020/12/25 06:21:07;;;;;;;1999.90;999.90;;;4.40;99.90;;;;;;5087826;28;20086;-90
2020/12/25 06:23:36;;;;;;;1999.90;999.90;;;4.40;99.90;;;;;;5093614;28;20166;-90
2020/12/25 06:26:07;;;;;;;1999.90;999.90;;;4.40;99.90;;;;;;5093215;28;20316;-90
2020/12/25 06:28:39;;;;;;;1999.90;999.90;;;4.30;99.90;;;;;;5086578;28;20086;-90
2020/12/25 06:31:09;;;;;;;1999.90;999.90;;;4.30;99.90;;;;;;5093721;28;20079;-90
2020/12/25 06:33:38;;;;;;;1999.90;999.90;;;4.30;99.90;;;;;;5093664;28;20056;-90
2020/12/25 06:36:06;;;;;;;1999.90;999.90;;;4.40;99.90;;;;;;5090838;28;20047;-90
2020/12/25 06:38:42;;;;;;;1999.90;999.90;;;4.40;99.90;;;;;;5093482;28;20052;-90
2020/12/25 06:41:11;;;;;;;1999.90;999.90;;;4.40;99.90;;;;;;5093523;28;20485;-91
2020/12/25 06:43:38;;;;;;;1999.90;999.90;;;4.40;99.90;;;;;;5093995;28;20105;-91
2020/12/25 06:46:06;;;;;;;1999.90;999.90;;;4.30;99.90;;;;;;5093766;28;20091;-91
2020/12/25 06:48:35;;;;;;;1999.90;999.90;;;4.40;99.90;;;;;;5094329;28;20052;-91
2020/12/25 06:51:03;;;;;;;1999.90;999.90;;;4.40;99.90;;;;;;5093414;28;20052;-91
2020/12/25 06:53:35;;;;;;;1999.90;999.90;;;4.40;99.90;;;;;;5096087;28;20043;-90
2020/12/25 06:56:10;;;;;;;1999.90;999.90;;;4.40;99.90;;;;;;5096887;28;20082;-91
2020/12/25 06:58:39;;;;;;;1999.90;999.90;;;4.40;99.90;;;;;;5092801;28;20048;-91
2020/12/25 07:01:07;;;;;;;1999.90;999.90;;;4.30;99.90;;;;;;5093383;28;20040;-91
2020/12/25 07:03:35;;;;;;;1999.90;999.90;;;4.30;99.90;;;;;;5093519;28;20059;-90
2020/12/25 07:06:05;;;;;;;1999.90;999.90;;;4.30;99.90;;;;;;5089032;28;20486;-91
2020/12/25 07:08:34;;;;;;;1999.90;999.90;;;4.30;99.90;;;;;;5096080;28;20109;-91
2020/12/25 07:11:03;;;;;;;1999.90;999.90;;;4.30;99.90;;;;;;5102316;28;20067;-90
2020/12/25 07:13:32;;;;;;;1999.90;999.90;;;4.20;99.90;;;;;;5080427;28;20071;-91
2020/12/25 07:16:00;;;;;;;1999.90;999.90;;;4.30;99.90;;;;;;5093509;28;20131;-90
2020/12/25 07:18:27;;;;;;;1999.90;999.90;;;4.30;99.90;;;;;;5091303;28;20121;-90
2020/12/25 07:20:56;;;;;;;1999.90;999.90;;;4.20;99.90;;;;;;5100599;28;20101;-90
2020/12/25 07:23:25;;;;;;;1999.90;999.90;;;4.20;99.90;;;;;;5093068;28;20044;-90
2020/12/25 07:25:53;;;;;;;1999.90;999.90;;;4.20;99.90;;;;;;5091786;28;20141;-91
2020/12/25 07:28:24;;;;;;;1999.90;999.90;;;4.10;99.90;;;;;;5091696;28;20139;-91
2020/12/25 07:30:52;;;;;;;1999.90;999.90;;;4.10;99.90;;;;;;5093275;28;20064;-90
2020/12/25 07:33:20;;;;;;;1999.90;999.90;;;4.20;99.90;;;;;;5098135;28;20048;-90
2020/12/25 07:35:49;;;;;;;1999.90;999.90;;;4.10;99.90;;;;;;5092567;28;20437;-90
2020/12/25 07:38:29;;;;;;;1999.90;999.90;;;4.10;99.90;;;;;;5094807;28;20055;-90
2020/12/25 07:40:56;;;;;;;1999.90;999.90;;;4.10;99.90;;;;;;5092676;28;20389;-90
2020/12/25 07:43:23;;;;;;;1999.90;999.90;;;4.00;99.90;;;;;;5100226;28;20048;-90
2020/12/25 07:45:50;;;;;;;1999.90;999.90;;;4.00;99.90;;;;;;5094008;28;20448;-90
2020/12/25 07:48:18;;;;;;;1999.90;999.90;;;4.00;99.90;;;;;;5099791;28;20130;-90
2020/12/25 07:50:46;;;;;;;1999.90;999.90;;;4.00;99.90;;;;;;5098841;28;20051;-90
2020/12/25 07:53:14;;;;;;;1999.90;999.90;;;3.90;99.90;;;;;;5096442;28;20052;-90
2020/12/25 07:55:44;;;;;;;1999.90;999.90;;;3.90;99.90;;;;;;5096509;28;20134;-90
2020/12/25 07:58:14;;;;;;;1999.90;999.90;;;3.90;99.90;;;;;;5082409;28;20045;-89
2020/12/25 08:00:41;;;;;;;1999.90;999.90;;;3.90;99.90;;;;;;5098139;28;20047;-90
2020/12/25 08:03:09;;;;;;;1999.90;999.90;;;3.90;99.90;;;;;;5096876;28;20486;-90
2020/12/25 08:05:37;;;;;;;1999.90;999.90;;;3.90;99.90;;;;;;5098618;28;20048;-90
2020/12/25 08:08:04;;;;;;;1999.90;999.90;;;3.80;99.90;;;;;;5096115;28;20417;-90
2020/12/25 08:10:34;;;;;;;1999.90;999.90;;;3.80;99.90;;;;;;5092340;28;20083;-90
2020/12/25 08:13:06;;;;;;;1999.90;999.90;;;3.80;99.90;;;;;;5085753;28;20449;-90
2020/12/25 08:15:34;;;;;;;1999.90;999.90;;;3.80;99.90;;;;;;5094041;28;20157;-87
2020/12/25 08:18:04;;;;;;;1999.90;999.90;;;3.80;99.90;;;;;;5098065;28;20063;-87
2020/12/25 08:20:32;;;;;;;1999.90;999.90;;;3.80;99.90;;;;;;5106604;28;20479;-87
2020/12/25 08:23:00;;;;;;;1999.90;999.90;;;3.80;99.90;;;;;;5095583;28;20090;-87
2020/12/25 08:25:28;;;;;;;1999.90;999.90;;;3.80;99.90;;;;;;5095711;28;20121;-87
2020/12/25 08:27:56;;;;;;;1999.90;999.90;;;3.80;99.90;;;;;;5095514;28;20076;-87
2020/12/25 08:30:25;;;;;;;1999.90;999.90;;;3.80;99.90;;;;;;5095203;28;20435;-87
2020/12/25 08:32:57;;;;;;;1999.90;999.90;;;3.80;99.90;;;;;;5095633;28;20142;-87
2020/12/25 08:35:27;;;;;;;1999.90;999.90;;;3.80;99.90;;;;;;5109423;28;20812;-87
2020/12/25 08:38:00;;;;;;;1999.90;999.90;;;3.80;99.90;;;;;;5103121;28;20139;-87
2020/12/25 08:40:31;;;;;;;1999.90;999.90;;;3.80;99.90;;;;;;5094698;28;20059;-87
2020/12/25 08:43:09;;;;;;;1999.90;999.90;;;3.80;99.90;;;;;;5084619;28;20111;-87
2020/12/25 08:45:38;;;;;;;1999.90;999.90;;;3.70;99.90;;;;;;5093564;28;20715;-87
2020/12/25 08:48:12;;;;;;;1999.90;999.90;;;3.80;99.90;;;;;;5095777;28;20097;-91
2020/12/25 08:50:40;;;;;;;1999.90;999.90;;;3.80;99.90;;;;;;5099459;28;20051;-91
2020/12/25 08:53:13;;;;;;;1999.90;999.90;;;3.80;99.90;;;;;;5102575;28;20457;-92
2020/12/25 08:55:40;;;;;;;1999.90;999.90;;;3.80;99.90;;;;;;5095723;28;20051;-91
2020/12/25 08:58:10;;;;;;;1999.90;999.90;;;3.90;99.90;;;;;;5104666;28;20546;-91
2020/12/25 09:00:38;;;;;;;1999.90;999.90;;;3.90;99.90;;;;;;5103952;28;20465;-91
2020/12/25 09:03:09;;;;;;;1999.90;999.90;;;3.90;99.90;;;;;;5082097;28;20055;-91
2020/12/25 09:05:37;;;;;;;1999.90;999.90;;;3.90;99.90;;;;;;5092134;28;20063;-90
2020/12/25 09:08:04;;;;;;;1999.90;999.90;;;3.90;99.90;;;;;;5093361;28;20131;-90
2020/12/25 09:10:31;;;;;;;1999.90;999.90;;;3.90;99.90;;;;;;5095917;28;20062;-89
2020/12/25 09:12:58;;;;;;;1999.90;999.90;;;4.00;99.90;;;;;;5103460;28;20155;-92
2020/12/25 09:15:25;;;;;;;1999.90;999.90;;;4.00;99.90;;;;;;5101169;28;20482;-91
2020/12/25 09:17:53;;;;;;;1999.90;999.90;;;4.10;99.90;;;;;;5097205;28;20128;-91
2020/12/25 09:20:20;;;;;;;1999.90;999.90;;;4.10;99.90;;;;;;5110083;28;20051;-91
2020/12/25 09:22:49;;;;;;;1999.90;999.90;;;4.10;99.90;;;;;;5100615;28;20129;-92
2020/12/25 09:25:16;;;;;;;1999.90;999.90;;;4.10;99.90;;;;;;5100643;28;20059;-91
2020/12/25 09:27:43;;;;;;;1999.90;999.90;;;4.10;99.90;;;;;;5096671;28;20471;-92
2020/12/25 09:30:14;;;;;;;1999.90;999.90;;;4.10;99.90;;;;;;5099027;28;20055;-91
2020/12/25 09:32:41;;;;;;;1999.90;999.90;;;4.10;99.90;;;;;;5103404;28;20076;-92
2020/12/25 09:35:09;;;;;;;1999.90;999.90;;;4.20;99.90;;;;;;5109154;28;20071;-92
2020/12/25 09:37:37;;;;;;;1999.90;999.90;;;4.20;99.90;;;;;;5095257;28;20074;-92
2020/12/25 09:40:04;;;;;;;1999.90;999.90;;;4.20;99.90;;;;;;5107004;28;20052;-91
2020/12/25 09:42:31;;;;;;;1999.90;999.90;;;4.30;99.90;;;;;;5113367;28;20078;-92
2020/12/25 09:44:58;;;;;;;1999.90;999.90;;;4.20;99.90;;;;;;5101468;28;20097;-91
2020/12/25 09:47:25;;;;;;;1999.90;999.90;;;4.20;99.90;;;;;;5094887;28;20047;-92
2020/12/25 09:49:52;;;;;;;1999.90;999.90;;;4.30;99.90;;;;;;5106346;28;20590;-91
2020/12/25 09:52:20;;;;;;;1999.90;999.90;;;4.30;99.90;;;;;;5102095;28;20495;-91
2020/12/25 09:54:47;;;;;;;1999.90;999.90;;;4.30;99.90;;;;;;5095179;28;20060;-92
2020/12/25 09:57:14;;;;;;;1999.90;999.90;;;4.30;99.90;;;;;;5094797;28;20487;-92
2020/12/25 09:59:42;;;;;;;1999.90;999.90;;;4.40;99.90;;;;;;5108236;28;20067;-92
2020/12/25 10:02:09;;;;;;;1999.90;999.90;;;4.40;99.90;;;;;;5094868;28;20479;-91
2020/12/25 10:04:36;;;;;;;1999.90;999.90;;;4.40;99.90;;;;;;5114808;28;20058;-92
2020/12/25 10:07:03;;;;;;;1999.90;999.90;;;4.50;99.90;;;;;;5103907;28;20048;-92
2020/12/25 10:09:32;;;;;;;1999.90;999.90;;;4.50;99.90;;;;;;5114252;28;20051;-91
2020/12/25 10:11:59;;;;;;;1999.90;999.90;;;4.60;99.90;;;;;;5085449;28;20547;-92
2020/12/25 10:14:27;;;;;;;1999.90;999.90;;;4.50;99.90;;;;;;5091774;28;20060;-93
2020/12/25 10:17:01;;;;;;;1999.90;999.90;;;4.60;99.90;;;;;;5115529;28;20061;-91
2020/12/25 10:19:28;;;;;;;1999.90;999.90;;;4.60;99.90;;;;;;5098302;28;20421;-92
2020/12/25 10:21:55;;;;;;;1999.90;999.90;;;4.60;99.90;;;;;;5081684;28;20048;-91
2020/12/25 10:24:22;;;;;;;1999.90;999.90;;;4.60;99.90;;;;;;5095303;28;20135;-91
2020/12/25 10:26:50;;;;;;;1999.90;999.90;;;4.60;99.90;;;;;;5094559;28;20093;-91
2020/12/25 10:29:17;;;;;;;1999.90;999.90;;;4.60;99.90;;;;;;5095009;28;20134;-91
2020/12/25 10:31:48;;;;;;;1999.90;999.90;;;4.60;99.90;;;;;;5096026;28;20062;-91
2020/12/25 10:34:15;;;;;;;1999.90;999.90;;;4.70;99.90;;;;;;5103800;28;20084;-91
2020/12/25 10:36:43;;;;;;;1999.90;999.90;;;4.70;99.90;;;;;;5097444;28;20558;-92
2020/12/25 10:39:13;;;;;;;1999.90;999.90;;;4.70;99.90;;;;;;5094697;28;20112;-92
2020/12/25 10:41:41;;;;;;;1999.90;999.90;;;4.70;99.90;;;;;;5094269;28;20059;-92
2020/12/25 10:44:10;;;;;;;1999.90;999.90;;;4.70;99.90;;;;;;5094481;28;20113;-91
2020/12/25 10:46:37;;;;;;;1999.90;999.90;;;4.80;99.90;;;;;;5080237;28;20056;-91
2020/12/25 10:49:04;;;;;;;1999.90;999.90;;;4.80;99.90;;;;;;5074599;28;20052;-93
2020/12/25 10:51:37;;;;;;;1999.90;999.90;;;4.90;99.90;;;;;;5087673;28;20101;-93
2020/12/25 10:54:04;;;;;;;1999.90;999.90;;;4.90;99.90;;;;;;5103546;28;20082;-93
2020/12/25 10:56:32;;;;;;;1999.90;999.90;;;4.90;99.90;;;;;;5113677;28;20071;-93
2020/12/25 10:59:20;;;;;;;1999.90;999.90;;;4.90;99.90;;;;;;5094467;28;20567;-94
2020/12/25 11:01:48;;;;;;;1999.90;999.90;;;4.90;99.90;;;;;;5094232;28;20093;-91
2020/12/25 11:04:15;;;;;;;1999.90;999.90;;;4.90;99.90;;;;;;5103093;28;20044;-94
2020/12/25 11:06:48;;;;;;;1999.90;999.90;;;5.00;99.90;;;;;;5099106;28;20055;-91
2020/12/25 11:09:16;;;;;;;1999.90;999.90;;;5.10;99.90;;;;;;5094885;28;20517;-91
2020/12/25 11:11:44;;;;;;;1999.90;999.90;;;5.10;99.90;;;;;;5103780;28;20052;-91
2020/12/25 11:14:11;;;;;;;1999.90;999.90;;;5.10;99.90;;;;;;5114828;28;20082;-94
2020/12/25 11:16:44;;;;;;;1999.90;999.90;;;5.10;99.90;;;;;;5107204;28;20060;-91
2020/12/25 11:19:16;;;;;;;1999.90;999.90;;;5.10;99.90;;;;;;5108640;28;20085;-92
2020/12/25 11:21:43;;;;;;;1999.90;999.90;;;5.10;99.90;;;;;;5116003;28;20135;-93
2020/12/25 11:24:10;;;;;;;1999.90;999.90;;;5.20;99.90;;;;;;5107680;28;20044;-93
2020/12/25 11:26:38;;;;;;;1999.90;999.90;;;5.20;99.90;;;;;;5117199;28;20077;-94
2020/12/25 11:29:09;;;;;;;1999.90;999.90;;;5.30;99.90;;;;;;5109047;28;20131;-93
2020/12/25 11:31:41;;;;;;;1999.90;999.90;;;5.30;99.90;;;;;;5098423;28;20048;-93
2020/12/25 11:34:10;;;;;;;1999.90;999.90;;;5.40;99.90;;;;;;5097883;28;20060;-93
2020/12/25 11:36:38;;;;;;;1999.90;999.90;;;5.40;99.90;;;;;;5098045;28;20581;-90
2020/12/25 11:39:07;;;;;;;1999.90;999.90;;;5.40;99.90;;;;;;5106644;28;20100;-92
2020/12/25 11:41:35;;;;;;;1999.90;999.90;;;5.30;99.90;;;;;;5094300;28;20048;-93
2020/12/25 11:44:03;;;;;;;1999.90;999.90;;;5.30;99.90;;;;;;5095728;28;20097;-93
2020/12/25 11:46:30;;;;;;;1999.90;999.90;;;5.40;99.90;;;;;;5098231;28;20052;-91
2020/12/25 11:48:59;;;;;;;1999.90;999.90;;;5.30;99.90;;;;;;5096451;28;20474;-90
2020/12/25 11:51:28;;;;;;;1999.90;999.90;;;5.40;99.90;;;;;;5097647;28;20491;-92
2020/12/25 11:53:56;;;;;;;1999.90;999.90;;;5.40;99.90;;;;;;5094639;28;20052;-93
2020/12/25 11:56:26;;;;;;;1999.90;999.90;;;5.50;99.90;;;;;;5077642;28;20445;-92
2020/12/25 11:58:53;;;;;;;1999.90;999.90;;;5.50;99.90;;;;;;5083764;28;20052;-93
2020/12/25 12:01:20;;;;;;;1999.90;999.90;;;5.50;99.90;;;;;;5110173;28;20047;-93
2020/12/25 12:03:47;;;;;;;1999.90;999.90;;;5.50;99.90;;;;;;5093614;28;20097;-93
2020/12/25 12:06:19;;;;;;;1999.90;999.90;;;5.60;99.90;;;;;;5099320;28;20055;-92
2020/12/25 12:08:47;;;;;;;1999.90;999.90;;;5.50;99.90;;;;;;5111661;28;20068;-92
2020/12/25 12:11:32;;;;;;;1999.90;999.90;;;5.60;99.90;;;;;;5109298;28;20093;-93
2020/12/25 12:14:01;;;;;;;1999.90;999.90;;;5.60;99.90;;;;;;5106053;28;20043;-91